createdAt,value
2023-03-01T00:01:22.346Z,43.94
2023-03-01T00:03:50.379Z,44.02
2023-03-01T00:06:19.072Z,44.13
2023-03-01T00:08:47.197Z,44.07
2023-03-01T00:11:18.521Z,44.19
2023-03-01T00:13:47.458Z,44.22
2023-03-01T00:16:40.304Z,44.03
2023-03-01T00:19:13.495Z,44.06
2023-03-01T00:21:41.458Z,43.91
2023-03-01T00:24:09.803Z,44.01
2023-03-01T00:26:38.114Z,44.09
2023-03-01T00:29:06.056Z,43.77
2023-03-01T00:31:34.289Z,44.21
2023-03-01T00:34:04.527Z,43.92
2023-03-01T00:36:35.101Z,44.00
2023-03-01T00:39:04.445Z,43.40
2023-03-01T00:41:32.710Z,43.17
2023-03-01T00:44:00.703Z,43.10
2023-03-01T00:46:28.743Z,43.09
2023-03-01T00:48:56.878Z,42.30
2023-03-01T00:51:26.996Z,41.92
2023-03-01T00:53:56.501Z,41.62
2023-03-01T00:56:25.069Z,41.79
2023-03-01T00:58:53.199Z,41.61
2023-03-01T01:01:28.686Z,41.25
2023-03-01T01:03:58.925Z,41.46
2023-03-01T01:06:32.057Z,41.31
2023-03-01T01:09:00.826Z,41.14
2023-03-01T01:11:29.572Z,41.25
2023-03-01T01:13:57.575Z,41.20
2023-03-01T01:16:26.905Z,40.44
2023-03-01T01:18:55.154Z,39.31
2023-03-01T01:21:24.228Z,39.73
2023-03-01T01:23:52.819Z,39.52
2023-03-01T01:26:24.699Z,38.69
2023-03-01T01:28:52.731Z,39.03
2023-03-01T01:31:20.934Z,38.66
2023-03-01T01:33:48.947Z,38.27
2023-03-01T01:36:16.666Z,38.16
2023-03-01T01:38:45.220Z,38.05
2023-03-01T01:41:13.722Z,37.78
2023-03-01T01:43:44.348Z,36.93
2023-03-01T01:46:18.098Z,36.77
2023-03-01T01:48:51.681Z,36.54
2023-03-01T01:51:21.627Z,36.48
2023-03-01T01:53:52.648Z,36.56
2023-03-01T01:56:20.709Z,35.78
2023-03-01T01:58:49.222Z,35.59
2023-03-01T02:01:17.258Z,35.38
2023-03-01T02:03:45.232Z,35.41
2023-03-01T02:06:34.155Z,35.10
2023-03-01T02:09:13.562Z,34.60
2023-03-01T02:11:41.335Z,34.91
2023-03-01T02:14:10.357Z,34.94
2023-03-01T02:16:38.176Z,34.21
2023-03-01T02:19:06.721Z,34.00
2023-03-01T02:21:48.509Z,33.81
2023-03-01T02:24:23.685Z,33.72
2023-03-01T02:26:53.798Z,33.16
2023-03-01T02:29:23.017Z,33.42
2023-03-01T02:31:51.417Z,33.41
2023-03-01T02:34:21.851Z,32.81
2023-03-01T02:36:51.901Z,32.26
2023-03-01T02:39:53.800Z,32.25
2023-03-01T02:42:27.854Z,31.82
2023-03-01T02:44:56.197Z,31.85
2023-03-01T02:47:24.646Z,32.38
2023-03-01T02:49:53.084Z,32.09
2023-03-01T02:52:45.730Z,31.74
2023-03-01T02:55:15.686Z,31.96
2023-03-01T02:57:46.362Z,31.92
2023-03-01T03:00:29.315Z,32.00
2023-03-01T03:02:58.602Z,30.95
2023-03-01T03:05:31.444Z,30.59
2023-03-01T03:08:00.871Z,30.64
2023-03-01T03:10:32.706Z,30.81
2023-03-01T03:13:14.522Z,29.61
2023-03-01T03:15:44.053Z,30.13
2023-03-01T03:18:14.240Z,29.79
2023-03-01T03:20:42.952Z,30.42
2023-03-01T03:23:10.999Z,30.26
2023-03-01T03:25:39.123Z,29.40
2023-03-01T03:28:11.299Z,28.86
2023-03-01T03:30:41.077Z,29.11
2023-03-01T03:33:11.878Z,28.90
2023-03-01T03:35:46.682Z,29.07
2023-03-01T03:38:18.222Z,28.85
2023-03-01T03:41:06.459Z,28.83
2023-03-01T03:43:36.457Z,28.71
2023-03-01T03:46:08.238Z,28.76
2023-03-01T03:48:38.793Z,28.60
2023-03-01T03:51:07.523Z,28.75
2023-03-01T03:53:35.520Z,28.27
2023-03-01T03:56:04.764Z,27.93
2023-03-01T03:58:33.861Z,28.20
2023-03-01T04:01:02.305Z,28.38
2023-03-01T04:03:30.771Z,27.60
2023-03-01T04:05:59.828Z,27.71
2023-03-01T04:08:27.960Z,27.79
2023-03-01T04:11:01.902Z,27.36
2023-03-01T04:13:29.690Z,27.96
2023-03-01T04:15:57.953Z,27.91
2023-03-01T04:18:26.830Z,27.49
2023-03-01T04:20:56.803Z,27.79
2023-03-01T04:23:24.835Z,27.51
2023-03-01T04:25:57.859Z,27.08
2023-03-01T04:28:37.293Z,27.21
2023-03-01T04:31:17.058Z,27.09
2023-03-01T04:33:49.233Z,27.01
2023-03-01T04:36:17.797Z,26.72
2023-03-01T04:38:49.036Z,26.93
2023-03-01T04:41:22.041Z,26.42
2023-03-01T04:43:50.218Z,26.43
2023-03-01T04:46:19.827Z,26.21
2023-03-01T04:48:51.270Z,26.02
2023-03-01T04:51:19.824Z,26.42
2023-03-01T04:53:48.098Z,26.06
2023-03-01T04:56:16.042Z,26.21
2023-03-01T04:58:44.294Z,26.03
2023-03-01T05:01:20.314Z,24.91
2023-03-01T05:03:50.580Z,25.20
2023-03-01T05:06:18.994Z,24.84
2023-03-01T05:08:46.923Z,24.86
2023-03-01T05:11:14.980Z,24.52
2023-03-01T05:13:43.175Z,24.79
2023-03-01T05:16:14.422Z,24.77
2023-03-01T05:18:42.495Z,24.39
2023-03-01T05:21:12.081Z,24.54
2023-03-01T05:23:40.551Z,24.29
2023-03-01T05:26:16.130Z,24.56
2023-03-01T05:28:53.994Z,24.83
2023-03-01T05:31:21.986Z,24.09
2023-03-01T05:33:50.158Z,24.06
2023-03-01T05:36:20.100Z,24.13
2023-03-01T05:38:47.881Z,24.25
2023-03-01T05:41:17.408Z,24.30
2023-03-01T05:43:46.353Z,23.29
2023-03-01T05:46:16.889Z,23.85
2023-03-01T05:48:45.086Z,23.69
2023-03-01T05:51:13.501Z,23.56
2023-03-01T05:53:41.264Z,23.59
2023-03-01T05:56:10.071Z,23.31
2023-03-01T05:58:40.229Z,23.22
2023-03-01T06:01:13.821Z,23.58
2023-03-01T06:03:41.925Z,23.17
2023-03-01T06:06:09.915Z,23.43
2023-03-01T06:08:38.151Z,23.28
2023-03-01T06:11:07.070Z,23.78
2023-03-01T06:13:35.507Z,23.33
2023-03-01T06:16:07.518Z,23.76
2023-03-01T06:18:35.683Z,22.83
2023-03-01T06:21:03.351Z,23.54
2023-03-01T06:23:31.586Z,23.63
2023-03-01T06:25:59.644Z,23.13
2023-03-01T06:28:27.453Z,23.31
2023-03-01T06:30:55.392Z,22.62
2023-03-01T06:33:25.491Z,23.56
2023-03-01T06:35:56.059Z,23.02
2023-03-01T06:38:25.935Z,22.75
2023-03-01T06:40:55.891Z,22.84
2023-03-01T06:43:24.907Z,23.45
2023-03-01T06:45:54.389Z,22.71
2023-03-01T06:48:22.611Z,22.50
2023-03-01T06:50:50.522Z,23.09
2023-03-01T06:53:18.455Z,22.42
2023-03-01T06:55:46.589Z,22.09
2023-03-01T06:58:14.728Z,22.13
2023-03-01T07:00:44.758Z,22.65
2023-03-01T07:03:12.936Z,21.55
2023-03-01T07:05:41.055Z,21.92
2023-03-01T07:08:08.843Z,21.80
2023-03-01T07:10:37.269Z,22.38
2023-03-01T07:13:05.465Z,22.28
2023-03-01T07:15:34.204Z,21.49
2023-03-01T07:18:02.288Z,22.33
2023-03-01T07:20:30.347Z,21.72
2023-03-01T07:22:59.970Z,21.70
2023-03-01T07:25:28.359Z,22.19
2023-03-01T07:27:56.379Z,21.94
2023-03-01T07:30:27.205Z,22.24
2023-03-01T07:32:55.888Z,21.73
2023-03-01T07:35:24.941Z,22.87
2023-03-01T07:37:53.006Z,22.25
2023-03-01T07:40:20.907Z,22.14
2023-03-01T07:42:49.144Z,21.77
2023-03-01T07:45:17.350Z,21.67
2023-03-01T07:47:45.289Z,21.84
2023-03-01T07:50:12.903Z,21.64
2023-03-01T07:52:41.386Z,22.25
2023-03-01T07:55:09.604Z,22.17
2023-03-01T07:57:37.497Z,22.05
2023-03-01T08:00:05.916Z,21.65
2023-03-01T08:02:40.555Z,22.21
2023-03-01T08:05:08.688Z,22.06
2023-03-01T08:07:37.006Z,22.14
2023-03-01T08:10:05.461Z,22.50
2023-03-01T08:12:33.925Z,21.92
2023-03-01T08:15:02.021Z,22.96
2023-03-01T08:17:30.276Z,22.37
2023-03-01T08:19:58.149Z,23.03
2023-03-01T08:22:26.602Z,23.20
2023-03-01T08:24:57.144Z,22.39
2023-03-01T08:27:25.604Z,22.64
2023-03-01T08:29:53.856Z,23.24
2023-03-01T08:32:22.039Z,22.82
2023-03-01T08:34:50.184Z,22.81
2023-03-01T08:37:18.285Z,23.45
2023-03-01T08:39:46.373Z,23.40
2023-03-01T08:42:14.249Z,23.73
2023-03-01T08:44:42.557Z,23.75
2023-03-01T08:47:11.045Z,23.45
2023-03-01T08:49:39.132Z,24.39
2023-03-01T08:52:06.952Z,24.67
2023-03-01T08:54:35.171Z,24.04
2023-03-01T08:57:04.237Z,24.37
2023-03-01T08:59:37.009Z,24.19
2023-03-01T09:02:06.738Z,24.95
2023-03-01T09:04:34.975Z,24.78
2023-03-01T09:07:03.186Z,25.13
2023-03-01T09:09:31.415Z,25.33
2023-03-01T09:14:44.601Z,25.21
2023-03-01T09:17:19.713Z,25.85
2023-03-01T09:19:48.016Z,25.62
2023-03-01T09:22:16.138Z,25.83
2023-03-01T09:24:44.466Z,25.58
2023-03-01T09:27:14.216Z,25.85
2023-03-01T09:29:42.322Z,25.73
2023-03-01T09:32:10.465Z,25.86
2023-03-01T09:34:56.768Z,25.84
2023-03-01T09:37:24.664Z,25.83
2023-03-01T09:39:52.950Z,25.82
2023-03-01T09:42:20.881Z,26.02
2023-03-01T09:44:51.931Z,25.85
2023-03-01T09:47:31.301Z,25.99
2023-03-01T09:50:05.486Z,26.00
2023-03-01T09:53:01.621Z,26.74
2023-03-01T09:55:55.466Z,26.24
2023-03-01T09:58:26.293Z,25.92
2023-03-01T10:00:54.027Z,25.51
2023-03-01T10:03:45.608Z,25.52
2023-03-01T10:06:27.481Z,24.96
2023-03-01T10:09:11.553Z,24.93
2023-03-01T10:11:41.815Z,24.56
2023-03-01T10:14:34.707Z,24.65
2023-03-01T10:17:06.259Z,24.61
2023-03-01T10:19:38.831Z,24.73
2023-03-01T10:22:24.515Z,25.21
2023-03-01T10:24:53.776Z,25.08
2023-03-01T10:27:28.171Z,25.35
2023-03-01T10:30:28.295Z,25.40
2023-03-01T10:32:56.448Z,25.60
2023-03-01T10:35:26.577Z,25.64
2023-03-01T10:38:04.793Z,25.37
2023-03-01T10:40:34.212Z,25.88
2023-03-01T10:43:06.506Z,25.22
2023-03-01T10:45:36.562Z,24.74
2023-03-01T10:48:11.184Z,24.86
2023-03-01T10:50:42.337Z,25.55
2023-03-01T10:53:42.108Z,24.95
2023-03-01T10:56:17.163Z,25.29
2023-03-01T10:59:06.296Z,25.27
2023-03-01T11:01:36.823Z,25.47
2023-03-01T11:04:10.449Z,25.40
2023-03-01T11:06:39.686Z,25.82
2023-03-01T11:09:21.603Z,26.08
2023-03-01T11:11:59.829Z,26.41
2023-03-01T11:14:29.751Z,26.71
2023-03-01T11:17:14.399Z,28.15
2023-03-01T11:19:45.198Z,28.60
2023-03-01T11:22:21.868Z,27.31
2023-03-01T11:25:07.128Z,27.33
2023-03-01T11:27:40.378Z,27.28
2023-03-01T11:30:32.942Z,27.61
2023-03-01T11:33:10.097Z,27.64
2023-03-01T11:35:59.037Z,27.68
2023-03-01T11:38:27.987Z,27.75
2023-03-01T11:41:08.853Z,27.63
2023-03-01T11:44:02.853Z,27.29
2023-03-01T11:46:43.924Z,27.61
2023-03-01T11:49:36.434Z,27.39
2023-03-01T11:52:34.214Z,27.48
2023-03-01T11:55:35.620Z,27.66
2023-03-01T11:58:48.734Z,27.83
2023-03-01T12:01:33.316Z,28.08
2023-03-01T12:04:23.783Z,27.59
2023-03-01T12:06:58.357Z,28.02
2023-03-01T12:09:36.969Z,27.88
2023-03-01T12:12:11.390Z,28.03
2023-03-01T12:14:51.445Z,28.50
2023-03-01T12:17:47.129Z,27.83
2023-03-01T12:20:27.416Z,28.30
2023-03-01T12:23:37.623Z,27.64
2023-03-01T12:26:29.846Z,28.04
2023-03-01T12:29:20.333Z,27.74
2023-03-01T12:31:51.109Z,28.13
2023-03-01T12:34:32.682Z,28.83
2023-03-01T12:37:28.601Z,28.99
2023-03-01T12:40:34.122Z,28.15
2023-03-01T12:43:09.358Z,28.62
2023-03-01T12:45:49.537Z,28.48
2023-03-01T12:48:32.886Z,28.55
2023-03-01T12:51:03.497Z,28.17
2023-03-01T12:53:37.435Z,28.24
2023-03-01T12:56:13.405Z,27.92
2023-03-01T12:59:09.343Z,27.84
2023-03-01T13:01:46.420Z,27.55
2023-03-01T13:04:28.542Z,27.61
2023-03-01T13:07:11.485Z,27.79
2023-03-01T13:09:41.922Z,27.99
2023-03-01T13:12:48.809Z,27.84
2023-03-01T13:15:37.465Z,28.82
2023-03-01T13:18:06.529Z,28.57
2023-03-01T13:20:45.608Z,28.27
2023-03-01T13:23:26.236Z,28.01
2023-03-01T13:26:00.195Z,27.60
2023-03-01T13:28:38.980Z,28.20
2023-03-01T13:31:08.764Z,29.08
2023-03-01T13:33:42.685Z,27.67
2023-03-01T13:36:13.923Z,28.32
2023-03-01T13:38:49.702Z,28.84
2023-03-01T13:41:40.744Z,28.24
2023-03-01T13:44:22.906Z,29.60
2023-03-01T13:46:52.549Z,30.45
2023-03-01T13:49:22.848Z,30.71
2023-03-01T13:51:51.528Z,31.50
2023-03-01T13:54:31.078Z,30.99
2023-03-01T13:56:59.875Z,32.22
2023-03-01T13:59:27.986Z,31.99
2023-03-01T14:02:01.095Z,32.40
2023-03-01T14:04:37.279Z,32.09
2023-03-01T14:07:19.552Z,32.22
2023-03-01T14:09:55.359Z,32.78
2023-03-01T14:12:46.087Z,32.98
2023-03-01T14:15:34.083Z,32.87
2023-03-01T14:18:28.838Z,32.94
2023-03-01T14:20:56.735Z,33.31
2023-03-01T14:23:25.206Z,32.89
2023-03-01T14:25:56.906Z,33.16
2023-03-01T14:28:39.155Z,33.93
2023-03-01T14:31:33.010Z,33.86
2023-03-01T14:34:04.692Z,33.17
2023-03-01T14:36:34.408Z,32.87
2023-03-01T14:39:06.688Z,33.22
2023-03-01T14:41:37.007Z,33.29
2023-03-01T14:44:09.696Z,33.75
2023-03-01T14:46:39.233Z,33.66
2023-03-01T14:49:14.588Z,33.34
2023-03-01T14:51:44.157Z,33.23
2023-03-01T14:54:29.345Z,32.85
2023-03-01T14:57:01.283Z,33.16
2023-03-01T14:59:29.500Z,33.26
2023-03-01T15:01:59.231Z,33.63
2023-03-01T15:04:27.624Z,33.28
2023-03-01T15:06:56.486Z,33.79
2023-03-01T15:09:24.843Z,33.29
2023-03-01T15:11:53.219Z,33.81
2023-03-01T15:14:29.417Z,34.14
2023-03-01T15:16:57.831Z,34.11
2023-03-01T15:19:25.862Z,34.08
2023-03-01T15:21:53.591Z,34.52
2023-03-01T15:24:30.956Z,34.63
2023-03-01T15:27:03.187Z,34.77
2023-03-01T15:29:34.965Z,34.91
2023-03-01T15:32:07.657Z,35.23
2023-03-01T15:34:38.406Z,35.18
2023-03-01T15:37:42.613Z,34.37
2023-03-01T15:40:33.696Z,34.53
2023-03-01T15:43:06.215Z,35.17
2023-03-01T15:45:39.977Z,35.33
2023-03-01T15:48:17.427Z,34.70
2023-03-01T15:50:47.538Z,34.62
2023-03-01T15:53:18.357Z,34.96
2023-03-01T15:55:48.581Z,34.30
2023-03-01T15:58:23.390Z,34.83
2023-03-01T16:01:01.985Z,34.71
2023-03-01T16:03:30.453Z,34.91
2023-03-01T16:05:58.278Z,34.37
2023-03-01T16:08:26.113Z,34.91
2023-03-01T16:10:56.195Z,35.08
2023-03-01T16:13:24.979Z,34.46
2023-03-01T16:15:52.893Z,34.96
2023-03-01T16:18:21.385Z,35.39
2023-03-01T16:20:50.541Z,34.47
2023-03-01T16:23:18.394Z,35.02
2023-03-01T16:25:46.335Z,35.41
2023-03-01T16:28:15.583Z,35.90
2023-03-01T16:30:47.841Z,36.10
2023-03-01T16:33:29.657Z,36.82
2023-03-01T16:36:22.451Z,36.64
2023-03-01T16:38:50.639Z,36.84
2023-03-01T16:41:21.585Z,36.81
2023-03-01T16:43:49.753Z,37.45
2023-03-01T16:46:18.947Z,38.01
2023-03-01T16:48:47.646Z,38.17
2023-03-01T16:51:15.764Z,38.23
2023-03-01T16:53:46.225Z,37.80
2023-03-01T16:56:15.479Z,38.47
2023-03-01T16:58:44.038Z,37.64
2023-03-01T17:01:19.779Z,37.93
2023-03-01T17:03:48.108Z,37.54
2023-03-01T17:06:19.391Z,37.98
2023-03-01T17:08:47.216Z,37.56
2023-03-01T17:11:17.454Z,37.80
2023-03-01T17:13:45.557Z,37.60
2023-03-01T17:16:15.935Z,37.58
2023-03-01T17:18:44.078Z,37.33
2023-03-01T17:21:12.356Z,37.37
2023-03-01T17:23:42.596Z,37.33
2023-03-01T17:26:10.643Z,37.48
2023-03-01T17:28:38.942Z,36.43
2023-03-01T17:31:07.440Z,36.63
2023-03-01T17:33:35.611Z,37.03
2023-03-01T17:36:04.099Z,36.84
2023-03-01T17:38:31.972Z,36.72
2023-03-01T17:41:01.338Z,36.90
2023-03-01T17:43:29.737Z,36.74
2023-03-01T17:45:57.804Z,36.49
2023-03-01T17:48:26.357Z,36.86
2023-03-01T17:50:54.441Z,37.00
2023-03-01T17:53:22.934Z,36.91
2023-03-01T17:55:54.515Z,36.54
2023-03-01T17:58:23.341Z,36.28
2023-03-01T18:00:51.640Z,36.23
2023-03-01T18:03:21.751Z,36.53
2023-03-01T18:05:49.907Z,36.92
2023-03-01T18:08:17.939Z,36.46
2023-03-01T18:10:45.941Z,36.32
2023-03-01T18:13:15.314Z,35.91
2023-03-01T18:15:43.421Z,36.25
2023-03-01T18:18:11.706Z,35.93
2023-03-01T18:20:39.701Z,36.75
2023-03-01T18:23:07.750Z,36.16
2023-03-01T18:25:35.673Z,36.73
2023-03-01T18:28:03.377Z,36.48
2023-03-01T18:30:31.380Z,36.26
2023-03-01T18:32:59.211Z,35.82
2023-03-01T18:35:27.676Z,36.60
2023-03-01T18:37:55.802Z,36.12
2023-03-01T18:40:23.562Z,35.96
2023-03-01T18:42:51.763Z,36.38
2023-03-01T18:45:19.659Z,36.62
2023-03-01T18:47:50.651Z,36.70
2023-03-01T18:50:18.997Z,36.16
2023-03-01T18:52:46.742Z,35.79
2023-03-01T18:55:15.250Z,36.43
2023-03-01T18:57:42.951Z,36.65
2023-03-01T19:00:11.572Z,36.60
2023-03-01T19:02:39.549Z,36.76
2023-03-01T19:05:08.332Z,37.04
2023-03-01T19:07:36.571Z,36.61
2023-03-01T19:10:05.077Z,36.48
2023-03-01T19:12:34.418Z,36.92
2023-03-01T19:15:04.384Z,36.83
2023-03-01T19:17:32.836Z,36.82
2023-03-01T19:20:00.711Z,37.21
2023-03-01T19:22:29.227Z,37.40
2023-03-01T19:24:57.142Z,37.12
2023-03-01T19:27:24.974Z,37.09
2023-03-01T19:29:53.168Z,37.26
2023-03-01T19:32:20.905Z,37.12
2023-03-01T19:34:49.111Z,37.60
2023-03-01T19:37:17.405Z,37.54
2023-03-01T19:39:45.565Z,36.98
2023-03-01T19:42:13.500Z,37.41
2023-03-01T19:44:42.205Z,37.51
2023-03-01T19:47:10.171Z,36.80
2023-03-01T19:49:38.689Z,36.88
2023-03-01T19:52:06.530Z,37.17
2023-03-01T19:54:34.810Z,37.59
2023-03-01T19:57:03.083Z,37.57
2023-03-01T19:59:31.125Z,37.14
2023-03-01T20:01:59.349Z,37.35
2023-03-01T20:04:27.576Z,37.16
2023-03-01T20:06:55.293Z,37.17
2023-03-01T20:09:23.253Z,37.00
2023-03-01T20:11:52.327Z,36.87
2023-03-01T20:14:23.527Z,36.75
2023-03-01T20:16:52.529Z,37.12
2023-03-01T20:19:20.456Z,36.83
2023-03-01T20:21:48.736Z,36.79
2023-03-01T20:24:16.677Z,37.08
2023-03-01T20:26:44.647Z,37.34
2023-03-01T20:29:13.063Z,37.62
2023-03-01T20:31:42.942Z,37.16
2023-03-01T20:34:10.889Z,37.38
2023-03-01T20:36:39.822Z,36.98
2023-03-01T20:39:07.991Z,37.63
2023-03-01T20:41:35.846Z,37.58
2023-03-01T20:44:06.944Z,37.58
2023-03-01T20:46:35.449Z,37.41
2023-03-01T20:49:04.156Z,37.17
2023-03-01T20:51:32.702Z,37.39
2023-03-01T20:54:00.899Z,37.74
2023-03-01T20:56:29.248Z,37.49
2023-03-01T20:59:08.745Z,37.59
2023-03-01T21:01:37.478Z,37.33
2023-03-01T21:04:05.700Z,37.87
2023-03-01T21:06:33.842Z,38.05
2023-03-01T21:09:02.151Z,38.13
2023-03-01T21:11:30.208Z,37.68
2023-03-01T21:13:58.140Z,37.84
2023-03-01T21:16:26.051Z,38.28
2023-03-01T21:18:55.329Z,38.57
2023-03-01T21:21:24.161Z,38.25
2023-03-01T21:23:52.346Z,38.38
2023-03-01T21:26:24.735Z,38.84
2023-03-01T21:28:56.125Z,39.15
2023-03-01T21:31:29.557Z,39.48
2023-03-01T21:33:59.158Z,38.73
2023-03-01T21:36:28.547Z,38.83
2023-03-01T21:38:56.571Z,38.93
2023-03-01T21:41:26.539Z,38.83
2023-03-01T21:43:57.901Z,39.21
2023-03-01T21:46:26.453Z,39.59
2023-03-01T21:48:55.047Z,39.66
2023-03-01T21:51:25.979Z,39.33
2023-03-01T21:53:55.994Z,40.23
2023-03-01T21:56:29.188Z,40.45
2023-03-01T21:58:57.950Z,40.30
2023-03-01T22:01:27.708Z,40.50
2023-03-01T22:03:56.584Z,40.49
2023-03-01T22:06:34.241Z,40.67
2023-03-01T22:09:08.010Z,40.49
2023-03-01T22:11:37.931Z,41.07
2023-03-01T22:14:06.874Z,41.89
2023-03-01T22:16:36.399Z,41.80
2023-03-01T22:19:05.440Z,41.51
2023-03-01T22:21:33.880Z,41.96
2023-03-01T22:24:02.210Z,42.30
2023-03-01T22:26:34.561Z,42.33
2023-03-01T22:29:03.946Z,42.42
2023-03-01T22:31:32.334Z,42.46
2023-03-01T22:34:00.542Z,42.88
2023-03-01T22:36:28.711Z,42.88
2023-03-01T22:39:00.579Z,43.46
2023-03-01T22:41:30.062Z,43.06
2023-03-01T22:43:58.295Z,43.44
2023-03-01T22:46:27.079Z,43.86
2023-03-01T22:48:55.242Z,43.64
2023-03-01T22:51:28.798Z,43.71
2023-03-01T22:53:56.947Z,43.98
2023-03-01T22:56:30.368Z,43.84
2023-03-01T22:59:03.268Z,44.25
2023-03-01T23:01:31.309Z,44.55
2023-03-01T23:03:59.761Z,44.60
2023-03-01T23:06:31.128Z,44.16
2023-03-01T23:09:01.330Z,44.77
2023-03-01T23:11:29.909Z,45.01
2023-03-01T23:13:59.214Z,45.38
2023-03-01T23:16:27.522Z,45.61
2023-03-01T23:18:56.463Z,45.87
2023-03-01T23:21:24.386Z,45.66
2023-03-01T23:23:52.456Z,46.56
2023-03-01T23:26:22.926Z,46.36
2023-03-01T23:28:51.218Z,46.57
2023-03-01T23:31:19.349Z,46.78
2023-03-01T23:33:47.417Z,46.65
2023-03-01T23:36:23.157Z,46.67
2023-03-01T23:38:53.093Z,46.39
2023-03-01T23:41:22.178Z,46.00
2023-03-01T23:43:53.451Z,46.32
2023-03-01T23:46:23.296Z,46.84
2023-03-01T23:48:51.511Z,46.70
2023-03-01T23:51:19.813Z,47.24
2023-03-01T23:53:54.857Z,47.13
2023-03-01T23:56:26.707Z,47.13
2023-03-01T23:58:55.521Z,47.34
